createdAt,value
2023-05-02T00:02:53.231Z,52.43
2023-05-02T00:07:55.183Z,52.79
2023-05-02T00:12:56.646Z,52.75
2023-05-02T00:17:58.123Z,53.02
2023-05-02T00:22:59.597Z,52.67
2023-05-02T00:28:01.011Z,52.69
2023-05-02T00:33:02.480Z,53.08
2023-05-02T00:38:03.857Z,52.80
2023-05-02T00:43:05.127Z,53.17
2023-05-02T00:48:08.806Z,53.62
2023-05-02T00:53:10.813Z,53.39
2023-05-02T00:58:16.428Z,53.51
2023-05-02T01:03:31.166Z,53.65
2023-05-02T01:08:40.173Z,54.09
2023-05-02T01:13:43.277Z,54.33
2023-05-02T01:18:47.118Z,54.59
2023-05-02T01:24:06.762Z,55.02
2023-05-02T01:29:10.186Z,55.22
2023-05-02T01:34:12.871Z,55.40
2023-05-02T01:39:27.215Z,55.47
2023-05-02T01:44:29.439Z,55.61
2023-05-02T01:49:34.123Z,55.82
2023-05-02T01:54:36.551Z,55.80
2023-05-02T01:59:40.902Z,56.15
2023-05-02T02:04:43.092Z,56.26
2023-05-02T02:09:44.557Z,56.33
2023-05-02T02:14:50.907Z,56.92
2023-05-02T02:19:56.091Z,56.74
2023-05-02T02:24:59.200Z,57.13
2023-05-02T02:30:00.909Z,57.49
2023-05-02T02:35:04.408Z,57.25
2023-05-02T02:40:19.011Z,57.81
2023-05-02T02:45:23.256Z,58.24
2023-05-02T02:50:31.275Z,58.47
2023-05-02T02:55:54.053Z,58.86
2023-05-02T03:00:56.163Z,58.70
2023-05-02T03:05:58.027Z,58.71
2023-05-02T03:10:59.347Z,58.76
2023-05-02T03:16:32.056Z,59.01
2023-05-02T03:21:34.416Z,59.39
2023-05-02T03:26:35.973Z,59.44
2023-05-02T03:31:37.430Z,59.45
2023-05-02T03:36:38.774Z,59.90
2023-05-02T03:41:40.136Z,59.84
2023-05-02T03:46:41.744Z,59.70
2023-05-02T03:51:43.599Z,59.45
2023-05-02T03:56:44.901Z,59.30
2023-05-02T04:01:50.407Z,59.15
2023-05-02T04:06:51.940Z,59.18
2023-05-02T04:11:53.850Z,59.15
2023-05-02T04:16:55.309Z,59.60
2023-05-02T04:21:56.632Z,59.57
2023-05-02T04:26:58.007Z,59.58
2023-05-02T04:31:59.360Z,59.64
2023-05-02T04:37:01.706Z,59.64
2023-05-02T04:42:03.944Z,59.79
2023-05-02T04:47:05.403Z,58.89
2023-05-02T04:52:06.785Z,59.60
2023-05-02T04:57:10.014Z,59.91
2023-05-02T05:02:12.829Z,59.32
2023-05-02T05:07:14.302Z,59.16
2023-05-02T05:12:15.651Z,59.87
2023-05-02T05:17:17.192Z,60.20
2023-05-02T05:22:20.303Z,60.33
2023-05-02T05:27:22.018Z,59.91
2023-05-02T05:32:24.249Z,59.77
2023-05-02T05:37:25.698Z,59.70
2023-05-02T05:42:27.174Z,59.42
2023-05-02T05:47:28.967Z,59.41
2023-05-02T05:52:30.630Z,59.22
2023-05-02T05:57:31.993Z,59.12
2023-05-02T06:02:33.449Z,59.86
2023-05-02T06:07:34.884Z,59.67
2023-05-02T06:12:36.445Z,59.76
2023-05-02T06:17:37.737Z,59.63
2023-05-02T06:22:40.446Z,58.98
2023-05-02T06:27:42.559Z,58.71
2023-05-02T06:32:44.162Z,58.79
2023-05-02T06:37:45.620Z,58.63
2023-05-02T06:42:47.199Z,58.77
2023-05-02T06:47:48.598Z,58.60
2023-05-02T06:52:49.950Z,58.43
2023-05-02T06:57:52.230Z,58.24
2023-05-02T07:02:54.747Z,58.24
2023-05-02T07:07:56.054Z,57.69
2023-05-02T07:12:57.533Z,57.40
2023-05-02T07:17:59.246Z,56.96
2023-05-02T07:23:00.685Z,56.28
2023-05-02T07:28:02.138Z,56.04
2023-05-02T07:33:03.738Z,56.65
2023-05-02T07:38:05.132Z,56.87
2023-05-02T07:43:07.483Z,55.47
2023-05-02T07:48:09.672Z,55.01
2023-05-02T07:53:11.719Z,55.77
2023-05-02T07:58:13.094Z,56.46
2023-05-02T08:03:14.644Z,56.77
2023-05-02T08:08:16.431Z,56.12
2023-05-02T08:13:18.069Z,56.99
2023-05-02T08:18:19.384Z,55.84
2023-05-02T08:23:21.054Z,56.24
2023-05-02T08:28:23.320Z,55.71
2023-05-02T08:33:24.670Z,54.93
2023-05-02T08:38:26.588Z,55.05
2023-05-02T08:43:29.461Z,54.65
2023-05-02T08:48:32.445Z,54.91
2023-05-02T08:53:37.344Z,55.03
2023-05-02T08:58:40.219Z,55.31
2023-05-02T09:03:44.564Z,56.06
2023-05-02T09:08:50.721Z,56.10
2023-05-02T09:13:52.568Z,54.74
2023-05-02T09:18:58.901Z,54.43
2023-05-02T09:24:00.429Z,54.47
2023-05-02T09:29:04.094Z,53.93
2023-05-02T09:34:13.925Z,53.38
2023-05-02T09:39:17.472Z,52.41
2023-05-02T09:44:21.785Z,50.95
2023-05-02T09:49:40.833Z,49.82
2023-05-02T09:54:42.406Z,47.84
2023-05-02T09:59:57.114Z,48.09
2023-05-02T10:05:01.726Z,48.49
2023-05-02T10:10:03.624Z,47.53
2023-05-02T10:15:07.979Z,45.64
2023-05-02T10:20:16.278Z,46.66
2023-05-02T10:25:18.355Z,48.13
2023-05-02T10:30:20.222Z,47.78
2023-05-02T10:35:24.256Z,46.77
2023-05-02T10:40:26.227Z,44.27
2023-05-02T10:45:35.304Z,43.72
2023-05-02T10:50:47.893Z,43.30
2023-05-02T10:56:11.541Z,44.27
2023-05-02T11:01:26.302Z,43.01
2023-05-02T11:06:34.063Z,40.31
2023-05-02T11:11:43.603Z,38.94
2023-05-02T11:17:11.552Z,37.78
2023-05-02T11:22:23.912Z,37.18
2023-05-02T11:27:31.201Z,37.06
2023-05-02T11:32:45.321Z,35.27
2023-05-02T11:37:59.979Z,33.75
2023-05-02T11:43:11.838Z,36.13
2023-05-02T11:48:16.398Z,34.81
2023-05-02T11:53:29.317Z,36.30
2023-05-02T11:58:33.278Z,36.91
2023-05-02T12:03:35.171Z,36.88
2023-05-02T12:08:37.303Z,37.36
2023-05-02T12:13:48.874Z,37.92
2023-05-02T12:18:50.673Z,38.55
2023-05-02T12:23:52.833Z,39.63
2023-05-02T12:28:55.171Z,40.10
2023-05-02T12:33:57.999Z,39.28
2023-05-02T12:39:00.438Z,40.59
2023-05-02T12:44:02.114Z,39.42
2023-05-02T12:49:12.367Z,38.70
2023-05-02T12:54:20.826Z,37.59
2023-05-02T12:59:29.991Z,36.70
2023-05-02T13:04:39.583Z,36.60
2023-05-02T13:09:41.209Z,37.48
2023-05-02T13:14:42.633Z,38.52
2023-05-02T13:19:50.400Z,38.33
2023-05-02T13:24:55.817Z,38.94
2023-05-02T13:29:57.384Z,38.98
2023-05-02T13:34:59.107Z,40.62
2023-05-02T13:40:00.873Z,40.72
2023-05-02T13:45:06.405Z,41.10
2023-05-02T13:50:08.494Z,41.66
2023-05-02T13:55:10.121Z,41.78
2023-05-02T14:00:12.020Z,41.32
2023-05-02T14:05:13.516Z,40.53
2023-05-02T14:10:14.948Z,41.14
2023-05-02T14:15:16.667Z,40.44
2023-05-02T14:20:18.060Z,38.82
2023-05-02T14:25:20.468Z,39.31
2023-05-02T14:30:21.767Z,39.77
2023-05-02T14:35:23.562Z,39.21
2023-05-02T14:40:24.841Z,38.85
2023-05-02T14:45:26.616Z,38.71
2023-05-02T14:50:27.994Z,39.43
2023-05-02T14:55:29.301Z,39.74
2023-05-02T15:00:30.653Z,39.40
2023-05-02T15:05:32.460Z,38.97
2023-05-02T15:10:39.982Z,39.36
2023-05-02T15:15:41.379Z,40.59
2023-05-02T15:20:44.429Z,40.53
2023-05-02T15:25:46.285Z,40.74
2023-05-02T15:30:49.285Z,41.51
2023-05-02T15:35:55.753Z,41.36
2023-05-02T15:40:59.282Z,41.29
2023-05-02T15:46:00.820Z,40.99
2023-05-02T15:51:03.014Z,41.28
2023-05-02T15:56:07.965Z,40.44
2023-05-02T16:01:09.718Z,40.25
2023-05-02T16:06:11.226Z,40.06
2023-05-02T16:11:12.601Z,40.30
2023-05-02T16:16:13.944Z,39.99
2023-05-02T16:21:15.548Z,38.96
2023-05-02T16:26:16.999Z,39.07
2023-05-02T16:31:18.356Z,39.53
2023-05-02T16:36:19.740Z,39.44
2023-05-02T16:41:21.393Z,39.86
2023-05-02T16:46:22.841Z,40.71
2023-05-02T16:51:24.165Z,40.38
2023-05-02T16:56:25.496Z,41.75
2023-05-02T17:01:27.204Z,42.91
2023-05-02T17:06:28.579Z,41.11
2023-05-02T17:11:29.995Z,41.51
2023-05-02T17:16:31.385Z,42.58
2023-05-02T17:21:33.724Z,43.08
2023-05-02T17:26:35.455Z,43.54
2023-05-02T17:31:37.829Z,42.90
2023-05-02T17:36:42.165Z,42.98
2023-05-02T17:41:43.569Z,43.09
2023-05-02T17:46:44.940Z,43.35
2023-05-02T17:51:46.575Z,45.53
2023-05-02T17:56:47.973Z,46.84
2023-05-02T18:01:52.796Z,47.44
2023-05-02T18:06:54.594Z,47.62
2023-05-02T18:11:58.301Z,47.64
2023-05-02T18:16:59.632Z,47.34
2023-05-02T18:22:01.106Z,47.91
2023-05-02T18:27:03.166Z,47.95
2023-05-02T18:32:04.603Z,48.29
2023-05-02T18:37:06.840Z,48.81
2023-05-02T18:42:08.300Z,49.04
2023-05-02T18:47:09.766Z,49.09
2023-05-02T18:52:11.877Z,49.15
2023-05-02T18:57:13.272Z,49.28
2023-05-02T19:02:15.627Z,49.55
2023-05-02T19:07:16.929Z,49.30
2023-05-02T19:12:18.344Z,49.58
2023-05-02T19:17:19.878Z,50.29
2023-05-02T19:22:22.194Z,50.57
2023-05-02T19:27:23.695Z,50.92
2023-05-02T19:32:25.303Z,51.02
2023-05-02T19:37:29.597Z,51.10
2023-05-02T19:42:30.828Z,51.03
2023-05-02T19:47:32.649Z,50.44
2023-05-02T19:52:34.378Z,50.88
2023-05-02T19:57:36.244Z,49.71
2023-05-02T20:02:37.698Z,48.65
2023-05-02T20:07:39.741Z,48.00
2023-05-02T20:12:44.847Z,47.67
2023-05-02T20:17:47.485Z,47.72
2023-05-02T20:22:48.860Z,47.60
2023-05-02T20:27:50.901Z,47.83
2023-05-02T20:32:52.594Z,47.81
2023-05-02T20:37:54.104Z,47.76
2023-05-02T20:42:55.483Z,48.05
2023-05-02T20:47:56.891Z,48.15
2023-05-02T20:52:58.225Z,48.49
2023-05-02T20:57:59.511Z,48.39
2023-05-02T21:03:00.998Z,48.94
2023-05-02T21:08:02.424Z,49.18
2023-05-02T21:13:03.754Z,49.19
2023-05-02T21:18:05.863Z,49.70
2023-05-02T21:23:11.023Z,49.75
2023-05-02T21:28:12.619Z,49.26
2023-05-02T21:33:17.363Z,49.89
2023-05-02T21:38:18.672Z,49.66
2023-05-02T21:43:20.023Z,49.61
2023-05-02T21:48:21.596Z,49.79
2023-05-02T21:53:23.765Z,50.02
2023-05-02T21:58:25.251Z,49.95
2023-05-02T22:03:27.622Z,49.99
2023-05-02T22:08:29.009Z,50.06
2023-05-02T22:13:30.358Z,50.11
2023-05-02T22:18:31.684Z,50.03
2023-05-02T22:23:32.986Z,50.25
2023-05-02T22:28:35.170Z,50.24
2023-05-02T22:33:37.156Z,50.54
2023-05-02T22:38:41.472Z,51.02
2023-05-02T22:43:42.796Z,50.92
2023-05-02T22:48:44.138Z,50.80
2023-05-02T22:53:45.663Z,51.08
2023-05-02T22:58:49.703Z,50.98
2023-05-02T23:03:51.783Z,51.02
2023-05-02T23:08:53.230Z,51.14
2023-05-02T23:13:54.537Z,51.04
2023-05-02T23:18:55.960Z,51.48
2023-05-02T23:23:57.306Z,51.30
2023-05-02T23:28:58.662Z,51.62
2023-05-02T23:34:00.542Z,51.35
2023-05-02T23:39:02.483Z,51.78
2023-05-02T23:44:04.666Z,52.02
2023-05-02T23:49:05.995Z,52.00
2023-05-02T23:54:07.282Z,51.81
2023-05-02T23:59:08.728Z,51.81
